Time;durP1;ratioP1;P1;durP2;ratioP2;P2;SDS_P1;SDS_P2;PMS_P1;PMS_P2;Temp;Humidity;BMP_temperature;BMP_pressure;BME280_temperature;BME280_humidity;BME280_pressure;Samples;Min_cycle;Max_cycle;Signal;HPM_P1;HPM_P2
2021/08/20 00:00:04;;;;;;;15.57;9.98;;;;;;;16.38;80.32;100138.16;5020860;28;20141;-78
2021/08/20 00:02:32;;;;;;;15.13;10.10;;;;;;;16.35;80.94;100140.38;5024309;28;20049;-80
2021/08/20 00:04:58;;;;;;;14.65;10.35;;;;;;;16.30;81.28;100150.91;5025509;28;20046;-77
2021/08/20 00:07:25;;;;;;;15.85;10.68;;;;;;;16.35;80.45;100141.22;5027903;28;20514;-79
2021/08/20 00:09:51;;;;;;;14.98;10.60;;;;;;;16.36;80.51;100147.50;5022809;28;20049;-80
2021/08/20 00:12:18;;;;;;;11.00;8.00;;;;;;;16.40;80.50;100146.09;5025276;28;20131;-76
2021/08/20 00:14:44;;;;;;;17.60;12.30;;;;;;;16.43;80.21;100142.16;5024407;28;20049;-77
2021/08/20 00:17:11;;;;;;;14.68;9.57;;;;;;;16.35;80.62;100141.22;5021273;28;20057;-79
2021/08/20 00:19:39;;;;;;;12.93;9.45;;;;;;;16.33;80.64;100139.72;5029664;28;20125;-78
2021/08/20 00:22:06;;;;;;;15.70;10.48;;;;;;;16.33;81.04;100137.84;5020836;28;20058;-78
2021/08/20 00:24:32;;;;;;;15.50;10.32;;;;;;;16.58;79.52;100143.03;5026144;28;20049;-78
2021/08/20 00:26:59;;;;;;;15.57;8.75;;;;;;;16.43;80.34;100143.00;5025051;28;20053;-80
2021/08/20 00:29:25;;;;;;;15.93;11.23;;;;;;;16.36;80.60;100142.06;5035860;28;20049;-78
2021/08/20 00:31:51;;;;;;;14.40;10.10;;;;;;;16.41;80.00;100139.63;5035058;28;20600;-79
2021/08/20 00:34:18;;;;;;;17.17;11.32;;;;;;;16.31;80.94;100130.94;5030132;28;20103;-78
2021/08/20 00:36:46;;;;;;;20.17;11.63;;;;;;;16.39;79.98;100141.69;5034344;28;20118;-78
2021/08/20 00:39:13;;;;;;;15.50;10.30;;;;;;;16.37;80.47;100138.34;5026617;28;20128;-81
2021/08/20 00:41:40;;;;;;;18.38;12.68;;;;;;;16.34;80.57;100139.56;5029509;28;20349;-80
2021/08/20 00:44:07;;;;;;;17.85;12.55;;;;;;;16.57;79.28;100138.63;5025337;28;20470;-79
2021/08/20 00:46:34;;;;;;;18.30;12.48;;;;;;;16.38;80.41;100135.44;5019039;28;20111;-79
2021/08/20 00:49:00;;;;;;;20.33;12.88;;;;;;;16.47;79.58;100138.06;5028411;28;20057;-79
2021/08/20 00:51:29;;;;;;;14.25;10.07;;;;;;;16.35;80.12;100134.97;5027341;28;20053;-78
2021/08/20 00:53:58;;;;;;;15.40;11.55;;;;;;;16.41;79.96;100131.50;5026619;28;20041;-78
2021/08/20 00:56:25;;;;;;;16.98;11.48;;;;;;;16.32;80.56;100129.91;5021908;28;20100;-79
2021/08/20 00:58:52;;;;;;;16.45;11.73;;;;;;;16.42;79.75;100133.19;5025228;28;20080;-77
2021/08/20 01:01:18;;;;;;;17.33;11.15;;;;;;;16.44;79.84;100130.28;5026359;28;20049;-77
2021/08/20 01:03:45;;;;;;;17.95;11.68;;;;;;;16.45;79.61;100130.09;5029704;28;20046;-79
2021/08/20 01:06:11;;;;;;;18.23;12.25;;;;;;;16.31;80.51;100133.63;5029599;28;20046;-80
2021/08/20 01:08:39;;;;;;;15.98;10.98;;;;;;;16.27;80.37;100124.22;5030921;28;20077;-76
2021/08/20 01:11:11;;;;;;;17.90;10.27;;;;;;;16.25;80.92;100129.81;5040425;28;20560;-79
2021/08/20 01:13:41;;;;;;;14.23;9.98;;;;;;;16.08;81.67;100128.25;5028342;28;20619;-79
2021/08/20 01:16:09;;;;;;;17.20;11.13;;;;;;;16.05;81.56;100125.94;5031951;28;20045;-79
2021/08/20 01:18:37;;;;;;;19.05;10.93;;;;;;;16.36;80.12;100131.25;5034335;28;20061;-78
2021/08/20 01:21:06;;;;;;;21.00;11.63;;;;;;;16.24;80.31;100130.00;5039275;28;20127;-78
2021/08/20 01:23:33;;;;;;;14.43;9.43;;;;;;;16.10;81.23;100123.50;5023528;28;20105;-78
2021/08/20 01:26:00;;;;;;;14.50;9.93;;;;;;;16.01;81.76;100122.75;5027061;28;20050;-77
2021/08/20 01:28:28;;;;;;;13.35;9.27;;;;;;;16.07;81.54;100127.41;5029036;28;20045;-79
2021/08/20 01:30:58;;;;;;;14.77;9.20;;;;;;;16.00;81.88;100126.47;5028546;28;20050;-79
2021/08/20 01:33:25;;;;;;;22.38;11.50;;;;;;;16.14;81.11;100119.41;5027031;28;20079;-79
2021/08/20 01:35:51;;;;;;;13.38;10.02;;;;;;;16.19;80.91;100118.88;5028766;28;20108;-78
2021/08/20 01:38:18;;;;;;;13.00;9.52;;;;;;;16.19;80.68;100125.13;5024880;28;20104;-77
2021/08/20 01:40:44;;;;;;;13.25;9.68;;;;;;;16.13;80.91;100125.88;5026933;28;20065;-77
2021/08/20 01:43:12;;;;;;;17.50;11.32;;;;;;;16.08;81.23;100118.28;5020112;28;20061;-78
2021/08/20 01:45:38;;;;;;;14.18;9.48;;;;;;;16.18;80.28;100119.88;5027955;28;20038;-76
2021/08/20 01:48:05;;;;;;;17.52;11.85;;;;;;;16.16;80.41;100113.81;5025137;28;20053;-81
2021/08/20 01:50:32;;;;;;;13.63;8.98;;;;;;;16.16;80.16;100119.25;5022523;28;20049;-79
2021/08/20 01:52:59;;;;;;;18.02;10.60;;;;;;;16.15;80.78;100109.44;5023963;28;20049;-78
2021/08/20 01:55:25;;;;;;;13.30;9.00;;;;;;;16.11;80.78;100122.50;5028988;28;20073;-80
2021/08/20 01:57:52;;;;;;;14.60;9.45;;;;;;;16.07;80.90;100116.59;5029404;28;20046;-78
2021/08/20 02:00:20;;;;;;;14.35;9.82;;;;;;;16.19;79.70;100119.69;5022503;28;20054;-77
2021/08/20 02:02:46;;;;;;;17.38;10.70;;;;;;;16.26;79.44;100114.41;5023114;28;20049;-78
2021/08/20 02:05:13;;;;;;;14.27;10.35;;;;;;;16.23;79.54;100121.03;5022988;28;20094;-77
2021/08/20 02:07:40;;;;;;;20.23;10.98;;;;;;;16.22;79.52;100123.91;5017413;28;20049;-78
2021/08/20 02:10:08;;;;;;;14.43;10.02;;;;;;;16.13;79.85;100119.59;5024276;28;20110;-77
2021/08/20 02:12:36;;;;;;;14.98;8.98;;;;;;;16.19;79.64;100119.69;5020836;28;20503;-79
2021/08/20 02:15:03;;;;;;;13.05;9.52;;;;;;;16.26;78.78;100117.13;5025885;28;20064;-80
2021/08/20 02:17:31;;;;;;;12.63;8.98;;;;;;;16.19;79.48;100118.88;5020975;28;20385;-78
2021/08/20 02:19:58;;;;;;;14.55;8.32;;;;;;;16.23;79.24;100117.50;5026444;28;20115;-79
2021/08/20 02:22:24;;;;;;;13.90;8.93;;;;;;;16.35;78.95;100119.56;5019874;28;20057;-77
2021/08/20 02:24:52;;;;;;;17.15;9.95;;;;;;;16.23;79.25;100121.03;5023988;28;20049;-76
2021/08/20 02:27:19;;;;;;;15.13;9.30;;;;;;;16.21;78.94;100123.06;5025544;28;20042;-77
2021/08/20 02:29:46;;;;;;;13.82;8.57;;;;;;;16.14;79.23;100119.41;5027628;28;20050;-78
2021/08/20 02:32:12;;;;;;;13.52;8.65;;;;;;;16.15;78.96;100110.28;5027126;28;20096;-78
2021/08/20 02:34:40;;;;;;;14.38;10.07;;;;;;;16.19;78.87;100110.75;5018459;28;20048;-79
2021/08/20 02:37:07;;;;;;;13.38;9.38;;;;;;;16.09;79.46;100111.84;5027632;28;20111;-78
2021/08/20 02:39:33;;;;;;;14.15;9.32;;;;;;;16.13;79.01;100116.91;5023381;28;20050;-81
2021/08/20 02:42:00;;;;;;;11.57;8.20;;;;;;;16.05;79.89;100113.22;5037015;28;20114;-77
2021/08/20 02:44:27;;;;;;;11.73;8.50;;;;;;;16.00;79.79;100107.53;5021370;28;20041;-79
2021/08/20 02:46:53;;;;;;;13.45;9.77;;;;;;;15.90;80.39;100115.06;5030269;28;20053;-78
2021/08/20 02:49:19;;;;;;;10.55;7.07;;;;;;;15.83;80.76;100108.69;5020388;28;20049;-76
2021/08/20 02:51:47;;;;;;;13.75;7.70;;;;;;;15.75;81.74;100111.47;5027210;28;20042;-78
2021/08/20 02:54:14;;;;;;;13.60;8.77;;;;;;;15.70;81.53;100105.75;5034193;28;20045;-81
2021/08/20 02:56:40;;;;;;;9.02;6.90;;;;;;;15.64;81.74;100107.31;5024040;28;20053;-78
2021/08/20 02:59:07;;;;;;;10.70;7.93;;;;;;;15.65;81.58;100105.44;5027099;28;20131;-79
2021/08/20 03:01:33;;;;;;;12.35;8.88;;;;;;;15.55;82.68;100115.63;5026963;28;20107;-77
2021/08/20 03:03:59;;;;;;;10.80;7.25;;;;;;;15.52;82.75;100114.13;5023873;28;20518;-79
2021/08/20 03:06:26;;;;;;;11.10;8.40;;;;;;;15.50;82.35;100113.44;5018930;28;20407;-79
2021/08/20 03:08:54;;;;;;;11.02;8.10;;;;;;;15.57;81.77;100109.00;5020945;28;20422;-79
2021/08/20 03:11:20;;;;;;;12.10;7.90;;;;;;;15.59;81.93;100120.50;5022311;28;20459;-78
2021/08/20 03:13:46;;;;;;;12.13;8.40;;;;;;;15.54;82.47;100119.34;5022090;28;20045;-79
2021/08/20 03:16:13;;;;;;;10.82;7.13;;;;;;;15.47;82.34;100120.06;5023174;28;20061;-78
2021/08/20 03:18:39;;;;;;;12.52;7.50;;;;;;;15.40;82.67;100123.69;5025273;28;20076;-78
2021/08/20 03:21:06;;;;;;;9.73;6.93;;;;;;;15.31;83.07;100114.75;5019065;28;20050;-78
2021/08/20 03:23:32;;;;;;;10.10;6.82;;;;;;;15.24;83.36;100116.47;5021250;28;20084;-77
2021/08/20 03:26:01;;;;;;;13.48;8.48;;;;;;;15.30;83.14;100125.75;5022057;28;20112;-78
2021/08/20 03:28:27;;;;;;;11.88;8.75;;;;;;;15.29;82.76;100130.31;5017591;28;20053;-79
2021/08/20 03:30:53;;;;;;;14.15;8.70;;;;;;;15.25;83.21;100133.53;5025261;28;20100;-79
2021/08/20 03:33:20;;;;;;;12.52;8.38;;;;;;;15.20;83.32;100136.78;5024612;28;20049;-80
2021/08/20 03:35:46;;;;;;;16.20;9.35;;;;;;;15.19;83.53;100137.81;5025960;28;20091;-78
2021/08/20 03:38:13;;;;;;;14.00;8.30;;;;;;;15.17;83.44;100120.94;5023262;28;20053;-80
2021/08/20 03:40:39;;;;;;;11.70;8.30;;;;;;;15.24;83.07;100129.16;5021458;28;20120;-79
2021/08/20 03:43:07;;;;;;;11.52;7.65;;;;;;;15.26;83.01;100127.09;5024731;28;20071;-78
2021/08/20 03:45:33;;;;;;;10.57;7.32;;;;;;;15.23;83.60;100139.13;5018838;28;20100;-79
2021/08/20 03:48:00;;;;;;;15.30;9.32;;;;;;;15.22;83.69;100137.44;5022470;28;20054;-78
2021/08/20 03:50:26;;;;;;;14.00;9.18;;;;;;;15.30;82.63;100123.91;5023724;28;20567;-77
2021/08/20 03:52:53;;;;;;;15.15;9.27;;;;;;;15.23;83.09;100130.19;5021915;28;20065;-78
2021/08/20 03:55:19;;;;;;;11.95;7.28;;;;;;;15.33;82.43;100128.94;5020859;28;20518;-81
2021/08/20 03:57:49;;;;;;;17.00;9.93;;;;;;;15.25;82.97;100137.09;5021529;28;20141;-78
2021/08/20 04:00:17;;;;;;;17.17;11.43;;;;;;;15.19;82.77;100130.53;5027555;28;20482;-79
2021/08/20 04:02:44;;;;;;;12.80;8.80;;;;;;;15.24;82.40;100119.19;5026127;28;20048;-79
2021/08/20 04:05:11;;;;;;;14.25;9.35;;;;;;;15.31;81.95;100122.03;5022468;28;20057;-76
2021/08/20 04:07:37;;;;;;;12.43;8.82;;;;;;;15.39;81.09;100128.25;5040050;28;20041;-78
2021/08/20 04:10:05;;;;;;;12.70;8.98;;;;;;;15.43;81.05;100121.44;5036541;28;20057;-76
2021/08/20 04:12:31;;;;;;;13.73;9.07;;;;;;;15.43;80.76;100132.25;5043517;28;20053;-79
2021/08/20 04:14:58;;;;;;;15.20;9.75;;;;;;;15.54;80.31;100130.19;5029508;28;20041;-78
2021/08/20 04:17:26;;;;;;;15.50;10.70;;;;;;;15.57;79.65;100127.94;5028730;28;20046;-77
2021/08/20 04:19:52;;;;;;;14.35;9.52;;;;;;;15.48;80.93;100137.97;5027719;28;20054;-77
2021/08/20 04:22:19;;;;;;;13.63;9.15;;;;;;;15.53;79.49;100129.34;5024696;28;20048;-79
2021/08/20 04:24:45;;;;;;;12.48;7.97;;;;;;;15.54;80.36;100131.03;5025988;28;20050;-76
2021/08/20 04:27:12;;;;;;;12.23;8.68;;;;;;;15.54;80.49;100135.59;5031104;28;20288;-76
2021/08/20 04:29:38;;;;;;;15.55;9.20;;;;;;;15.52;80.42;100143.03;5029927;28;20069;-80
2021/08/20 04:32:05;;;;;;;13.45;8.98;;;;;;;15.48;80.86;100137.97;5022651;28;20630;-77
2021/08/20 04:34:33;;;;;;;15.80;9.02;;;;;;;15.58;80.01;100136.91;5032996;28;20057;-78
2021/08/20 04:36:59;;;;;;;13.00;8.85;;;;;;;15.54;80.37;100141.00;5028807;28;20076;-78
2021/08/20 04:39:26;;;;;;;17.70;9.88;;;;;;;15.60;79.53;100137.59;5026280;28;20053;-78
2021/08/20 04:41:52;;;;;;;11.50;7.40;;;;;;;15.58;80.48;100137.75;5026639;28;20045;-78
2021/08/20 04:44:19;;;;;;;10.82;8.02;;;;;;;15.59;80.55;100127.75;5027335;28;20183;-79
2021/08/20 04:46:45;;;;;;;13.13;8.85;;;;;;;15.59;80.22;100138.59;5049548;22;20383;-55
2021/08/20 04:49:11;;;;;;;15.45;11.10;;;;;;;15.87;78.26;100138.94;5045653;28;20053;-56
2021/08/20 04:51:39;;;;;;;14.35;8.98;;;;;;;15.79;79.18;100150.66;5041379;28;20053;-57
2021/08/20 04:54:06;;;;;;;13.93;9.70;;;;;;;15.75;79.41;100144.78;5040343;28;20060;-52
2021/08/20 04:56:32;;;;;;;14.15;9.50;;;;;;;15.71;79.91;100148.84;5039386;28;20060;-55
2021/08/20 04:58:58;;;;;;;14.50;9.25;;;;;;;15.71;79.76;100143.44;5043644;22;20038;-56
2021/08/20 05:01:25;;;;;;;14.55;10.45;;;;;;;15.69;79.79;100145.47;5024597;28;20330;-59
2021/08/20 05:03:51;;;;;;;14.07;9.65;;;;;;;15.69;80.08;100150.06;5022388;28;20073;-58
2021/08/20 05:06:18;;;;;;;14.95;10.25;;;;;;;15.69;79.72;100145.47;5022983;28;20037;-58
2021/08/20 05:08:45;;;;;;;13.55;9.95;;;;;;;15.64;79.17;100147.91;5019147;28;20046;-58
2021/08/20 05:11:12;;;;;;;16.02;11.13;;;;;;;15.61;80.62;100147.38;5024083;28;20583;-59
2021/08/20 05:13:38;;;;;;;14.65;9.68;;;;;;;15.61;80.23;100152.81;5027562;28;20072;-59
2021/08/20 05:16:05;;;;;;;15.40;9.23;;;;;;;15.60;80.63;100156.53;5023756;28;20424;-58
2021/08/20 05:18:32;;;;;;;13.43;9.63;;;;;;;15.58;80.52;100151.28;5026076;28;20053;-56
2021/08/20 05:20:58;;;;;;;12.85;9.27;;;;;;;15.63;80.54;100150.78;5023340;28;20073;-58
2021/08/20 05:23:24;;;;;;;17.35;10.18;;;;;;;15.70;80.22;100151.72;5025304;28;20049;-60
2021/08/20 05:25:52;;;;;;;11.60;8.82;;;;;;;15.85;79.06;100149.94;5027985;28;20084;-59
2021/08/20 05:28:18;;;;;;;11.20;8.10;;;;;;;15.84;79.79;100153.66;5021580;28;20139;-59
2021/08/20 05:30:45;;;;;;;16.75;10.95;;;;;;;16.17;77.67;100156.13;5022894;28;20727;-58
2021/08/20 05:33:12;;;;;;;16.42;9.77;;;;;;;15.93;78.38;100155.28;5024517;28;20052;-55
2021/08/20 05:35:40;;;;;;;15.02;10.15;;;;;;;16.01;77.96;100160.66;5023674;28;20053;-57
2021/08/20 05:38:06;;;;;;;13.77;8.93;;;;;;;16.05;78.22;100172.78;5024567;28;20108;-58
2021/08/20 05:40:32;;;;;;;15.10;10.32;;;;;;;16.07;78.31;100168.03;5024731;28;20103;-55
2021/08/20 05:43:02;;;;;;;13.40;8.18;;;;;;;16.12;78.57;100172.91;5024035;28;20099;-59
2021/08/20 05:45:29;;;;;;;15.38;9.77;;;;;;;16.33;76.97;100169.50;5023273;28;20046;-56
2021/08/20 05:47:55;;;;;;;12.35;8.98;;;;;;;16.37;77.08;100171.69;5023163;28;20041;-54
2021/08/20 05:50:21;;;;;;;13.65;8.95;;;;;;;16.42;76.89;100179.25;5025689;28;20053;-56
2021/08/20 05:52:48;;;;;;;12.68;8.48;;;;;;;16.57;76.09;100185.53;5025433;28;20045;-61
2021/08/20 05:55:14;;;;;;;13.40;9.30;;;;;;;16.57;76.13;100174.69;5019625;28;20049;-58
2021/08/20 05:57:40;;;;;;;13.18;9.13;;;;;;;16.76;75.29;100175.22;5021934;28;20586;-57
2021/08/20 06:00:09;;;;;;;14.65;8.73;;;;;;;16.75;75.55;100179.78;5022475;28;20103;-57
2021/08/20 06:02:39;;;;;;;12.63;8.38;;;;;;;16.77;75.67;100177.75;5020996;28;20126;-56
2021/08/20 06:05:07;;;;;;;12.48;9.02;;;;;;;16.77;74.79;100183.16;5017937;28;20081;-57
2021/08/20 06:07:33;;;;;;;10.75;7.55;;;;;;;16.97;73.98;100169.91;5016592;28;20049;-57
2021/08/20 06:10:00;;;;;;;11.07;7.75;;;;;;;16.92;75.46;100172.31;5025045;28;20050;-56
2021/08/20 06:12:27;;;;;;;9.85;7.22;;;;;;;17.05;73.90;100163.53;5018415;28;20488;-59
2021/08/20 06:14:54;;;;;;;13.10;8.18;;;;;;;16.92;74.72;100177.72;5016961;28;20411;-60
2021/08/20 06:17:21;;;;;;;12.02;7.68;;;;;;;17.10;73.10;100171.94;5020063;28;20092;-57
2021/08/20 06:19:48;;;;;;;11.13;7.20;;;;;;;17.13;74.39;100175.13;5022439;28;20073;-60
2021/08/20 06:22:14;;;;;;;10.85;6.75;;;;;;;17.31;72.89;100184.75;5018647;28;20050;-57
2021/08/20 06:24:40;;;;;;;12.15;7.28;;;;;;;17.40;71.63;100183.59;5021668;28;20466;-60
2021/08/20 06:27:07;;;;;;;14.80;7.13;;;;;;;17.38;72.04;100193.78;5022499;28;20510;-59
2021/08/20 06:29:33;;;;;;;11.20;7.80;;;;;;;17.55;70.54;100198.00;5022233;28;20052;-60
2021/08/20 06:32:00;;;;;;;13.25;7.22;;;;;;;17.33;71.61;100198.97;5018460;28;20077;-58
2021/08/20 06:34:30;;;;;;;10.93;7.55;;;;;;;17.48;69.83;100197.06;5017789;28;20457;-58
2021/08/20 06:36:56;;;;;;;10.10;7.63;;;;;;;17.54;69.93;100204.44;5017257;28;20426;-57
2021/08/20 06:39:23;;;;;;;10.07;6.03;;;;;;;17.58;nan;100208.44;5020907;28;20057;-61
2021/08/20 06:41:49;;;;;;;10.18;6.97;;;;;;;17.66;69.33;100213.78;5020920;28;20099;-57
2021/08/20 06:44:15;;;;;;;11.77;7.50;;;;;;;17.53;69.59;100211.75;5021695;28;20089;-60
2021/08/20 06:46:42;;;;;;;10.10;6.97;;;;;;;17.57;70.94;100208.66;5026520;28;20127;-54
2021/08/20 06:49:08;;;;;;;13.52;7.22;;;;;;;17.55;70.63;100208.84;5025552;28;20054;-59
2021/08/20 06:51:37;;;;;;;12.13;7.05;;;;;;;17.48;70.66;100207.91;5030644;28;20053;-58
2021/08/20 06:54:04;;;;;;;15.32;7.70;;;;;;;17.54;69.41;100196.31;5030241;28;20388;-55
2021/08/20 06:56:30;;;;;;;10.77;6.57;;;;;;;17.66;70.56;100200.22;5030966;28;20049;-62
2021/08/20 06:58:58;;;;;;;12.52;8.25;;;;;;;17.60;69.96;100202.84;5030083;28;20081;-60
2021/08/20 07:01:24;;;;;;;12.20;7.47;;;;;;;17.78;69.70;100208.72;5028010;28;20060;-54
2021/08/20 07:03:50;;;;;;;13.00;7.80;;;;;;;18.05;68.75;100205.25;5029802;28;20053;-56
2021/08/20 07:06:20;;;;;;;9.65;6.53;;;;;;;18.13;67.92;100207.00;5030539;28;20099;-58
2021/08/20 07:08:49;;;;;;;13.93;7.75;;;;;;;18.24;67.74;100209.22;5031039;28;20041;-56
2021/08/20 07:11:16;;;;;;;21.00;9.13;;;;;;;18.45;66.39;100211.03;5028446;28;20057;-58
2021/08/20 07:13:42;;;;;;;13.63;8.02;;;;;;;18.56;66.34;100202.34;5029587;28;20049;-57
2021/08/20 07:16:09;;;;;;;9.82;6.28;;;;;;;18.64;67.32;100218.56;5029903;28;20115;-58
2021/08/20 07:18:36;;;;;;;16.58;10.32;;;;;;;18.54;65.32;100219.91;5023403;28;20115;-54
2021/08/20 07:21:02;;;;;;;12.60;8.73;;;;;;;18.64;65.82;100224.00;5027945;28;20049;-58
2021/08/20 07:23:29;;;;;;;15.90;10.02;;;;;;;18.57;65.79;100216.78;5029335;28;20053;-56
2021/08/20 07:25:57;;;;;;;15.85;9.55;;;;;;;18.58;65.21;100224.75;5030058;28;20127;-56
2021/08/20 07:28:23;;;;;;;15.38;9.43;;;;;;;18.33;66.38;100227.03;5028770;28;20046;-57
2021/08/20 07:30:49;;;;;;;16.10;10.07;;;;;;;18.14;65.61;100227.72;5026535;28;20049;-63
2021/08/20 07:33:16;;;;;;;14.00;9.15;;;;;;;17.91;67.84;100225.16;5028750;28;20397;-60
2021/08/20 07:35:42;;;;;;;13.05;8.93;;;;;;;17.87;67.70;100217.56;5030281;28;20084;-56
2021/08/20 07:38:08;;;;;;;12.70;8.95;;;;;;;17.76;68.06;100217.06;5030700;28;20054;-56
2021/08/20 07:40:35;;;;;;;15.63;9.65;;;;;;;17.57;68.33;100217.63;5028613;28;20053;-57
2021/08/20 07:43:03;;;;;;;15.02;9.35;;;;;;;17.62;67.72;100222.47;5030117;28;20049;-56
2021/08/20 07:45:29;;;;;;;13.48;8.45;;;;;;;17.51;68.04;100218.38;5029145;28;20573;-58
2021/08/20 07:47:57;;;;;;;12.68;8.55;;;;;;;17.50;69.19;100217.53;5019479;28;20313;-57
2021/08/20 07:50:23;;;;;;;12.65;8.57;;;;;;;17.59;68.09;100231.00;5029500;28;20103;-54
2021/08/20 07:52:50;;;;;;;14.85;8.93;;;;;;;17.50;68.22;100230.25;5028882;28;20572;-58
2021/08/20 07:55:17;;;;;;;11.27;7.35;;;;;;;17.25;70.52;100238.69;5030114;28;20099;-57
2021/08/20 07:57:51;;;;;;;12.05;8.27;;;;;;;17.28;69.71;100237.47;5029972;28;20128;-56
2021/08/20 08:00:21;;;;;;;14.32;8.57;;;;;;;17.19;69.99;100236.75;5030029;28;20491;-59
2021/08/20 08:02:48;;;;;;;11.65;7.55;;;;;;;17.37;69.61;100232.81;5029628;28;20136;-59
2021/08/20 08:05:14;;;;;;;15.82;7.40;;;;;;;17.47;69.15;100245.06;5030144;28;20049;-56
2021/08/20 08:07:41;;;;;;;16.27;9.13;;;;;;;17.53;68.28;100244.31;5029961;28;20088;-58
2021/08/20 08:10:08;;;;;;;12.00;7.43;;;;;;;17.54;69.80;100246.00;5028669;28;20119;-57
2021/08/20 08:12:35;;;;;;;13.57;6.07;;;;;;;17.57;69.19;100250.19;5029047;28;20077;-56
2021/08/20 08:15:01;;;;;;;12.75;7.38;;;;;;;17.57;68.59;100257.50;5028912;28;20065;-59
2021/08/20 08:17:28;;;;;;;11.80;7.38;;;;;;;17.44;68.70;100258.16;5028602;28;20483;-57
2021/08/20 08:19:55;;;;;;;7.95;5.40;;;;;;;17.43;69.50;100253.78;5028334;28;20443;-58
2021/08/20 08:22:21;;;;;;;10.23;6.88;;;;;;;17.38;68.83;100262.44;5027797;28;20073;-56
2021/08/20 08:24:47;;;;;;;10.23;6.60;;;;;;;17.47;68.72;100249.63;5028821;28;20084;-57
2021/08/20 08:27:14;;;;;;;7.72;5.70;;;;;;;17.44;68.60;100260.88;5028436;28;20073;-55
2021/08/20 08:29:40;;;;;;;10.18;5.88;;;;;;;17.53;67.54;100252.44;5030086;28;20046;-62
2021/08/20 08:32:07;;;;;;;9.88;5.50;;;;;;;17.63;67.69;100254.84;5028466;28;20136;-56
2021/08/20 08:34:35;;;;;;;9.68;6.63;;;;;;;17.60;67.41;100249.81;5029112;28;20096;-57
2021/08/20 08:37:01;;;;;;;7.40;5.78;;;;;;;17.87;66.41;100261.00;5019376;28;20095;-55
2021/08/20 08:39:27;;;;;;;11.90;7.30;;;;;;;17.85;66.18;100260.38;5029685;28;20466;-58
2021/08/20 08:41:54;;;;;;;7.28;5.55;;;;;;;18.03;67.66;100267.06;5029507;28;20076;-59
2021/08/20 08:44:20;;;;;;;7.85;5.57;;;;;;;18.26;64.97;100261.47;5028683;28;20045;-57
2021/08/20 08:46:48;;;;;;;7.20;4.53;;;;;;;18.57;65.57;100266.56;5032166;28;20076;-60
2021/08/20 08:49:19;;;;;;;7.95;4.35;;;;;;;18.97;63.96;100267.75;5022973;28;20147;-61
2021/08/20 08:51:46;;;;;;;9.13;4.72;;;;;;;19.18;61.09;100275.03;5025820;28;20045;-58
2021/08/20 08:54:13;;;;;;;10.52;5.20;;;;;;;19.37;60.00;100278.91;5031848;28;20123;-60
2021/08/20 08:56:42;;;;;;;6.53;4.72;;;;;;;19.51;59.78;100283.38;5033754;28;20049;-60
2021/08/20 08:59:08;;;;;;;9.55;4.93;;;;;;;19.68;59.13;100283.09;5031842;28;20123;-56
2021/08/20 09:01:37;;;;;;;8.60;5.30;;;;;;;19.71;58.87;100277.22;5033219;28;20464;-57
2021/08/20 09:04:12;;;;;;;6.50;4.25;;;;;;;19.76;58.55;100278.28;5032332;28;20104;-57
2021/08/20 09:06:40;;;;;;;7.88;4.68;;;;;;;19.65;60.04;100286.19;5032437;28;20045;-56
2021/08/20 09:09:09;;;;;;;11.43;4.95;;;;;;;19.70;57.61;100273.66;5032482;28;20049;-56
2021/08/20 09:11:36;;;;;;;7.07;4.50;;;;;;;19.84;56.88;100271.84;5026345;28;20131;-55
2021/08/20 09:14:02;;;;;;;7.13;5.25;;;;;;;19.95;56.16;100273.97;5029396;28;20454;-59
2021/08/20 09:16:35;;;;;;;5.68;4.00;;;;;;;20.47;54.52;100272.44;5029850;28;20046;-56
2021/08/20 09:19:13;;;;;;;7.05;4.32;;;;;;;20.52;52.13;100269.94;5027023;28;20115;-58
2021/08/20 09:21:40;;;;;;;9.20;4.43;;;;;;;20.67;51.90;100267.84;5029869;28;20045;-59
2021/08/20 09:24:35;;;;;;;7.18;4.55;;;;;;;20.72;51.69;100257.16;5024985;28;20163;-57
2021/08/20 09:27:24;;;;;;;5.88;3.60;;;;;;;21.23;51.18;100251.00;5031955;28;20057;-58
2021/08/20 09:29:56;;;;;;;8.30;4.63;;;;;;;21.11;51.00;100258.16;5031717;28;20053;-58
2021/08/20 09:32:24;;;;;;;7.20;3.60;;;;;;;21.36;50.34;100252.91;5028284;28;20084;-56
2021/08/20 09:34:51;;;;;;;7.55;3.60;;;;;;;21.12;51.60;100254.38;5029504;28;20049;-56
2021/08/20 09:37:18;;;;;;;7.75;3.40;;;;;;;21.54;53.19;100247.56;5030563;28;20058;-59
2021/08/20 09:39:46;;;;;;;8.00;4.18;;;;;;;21.80;49.31;100243.09;5031939;28;20529;-61
2021/08/20 09:42:14;;;;;;;8.20;4.75;;;;;;;21.40;46.76;100250.56;5029207;28;20462;-57
2021/08/20 09:44:40;;;;;;;6.15;3.88;;;;;;;21.39;47.97;100243.44;5032321;28;20600;-58
2021/08/20 09:47:07;;;;;;;5.53;3.22;;;;;;;21.65;48.11;100248.78;5028994;28;20049;-57
2021/08/20 09:49:55;;;;;;;5.15;3.45;;;;;;;22.12;46.87;100254.91;5029918;28;20172;-55
2021/08/20 09:52:27;;;;;;;11.18;4.60;;;;;;;21.98;47.30;100254.13;5025447;28;20045;-59
2021/08/20 09:54:55;;;;;;;11.52;5.55;;;;;;;22.11;45.61;100247.75;5024597;28;20054;-58
2021/08/20 09:57:25;;;;;;;6.32;3.75;;;;;;;22.43;48.24;100252.19;5030476;28;20519;-58
2021/08/20 09:59:54;;;;;;;8.32;4.95;;;;;;;21.83;46.23;100248.09;5030349;28;20053;-63
2021/08/20 10:02:25;;;;;;;7.65;4.82;;;;;;;21.91;47.98;100253.31;5031763;28;20187;-57
2021/08/20 10:04:54;;;;;;;8.13;5.40;;;;;;;21.78;46.65;100248.72;5028100;28;20059;-60
2021/08/20 10:07:21;;;;;;;9.52;4.57;;;;;;;22.00;46.08;100251.16;5024708;28;20081;-57
2021/08/20 10:09:48;;;;;;;15.85;5.47;;;;;;;22.04;46.23;100252.41;5032601;28;20045;-57
2021/08/20 10:12:19;;;;;;;7.45;5.43;;;;;;;21.74;46.25;100244.78;5031164;28;20130;-58
2021/08/20 10:14:47;;;;;;;7.75;4.78;;;;;;;21.64;46.16;100249.00;5031358;28;20067;-57
2021/08/20 10:17:14;;;;;;;7.15;4.53;;;;;;;21.55;48.56;100243.81;5028891;28;20049;-58
2021/08/20 10:19:41;;;;;;;6.72;4.55;;;;;;;21.53;46.88;100245.06;5030550;28;20521;-57
2021/08/20 10:22:09;;;;;;;8.25;4.68;;;;;;;21.22;48.79;100243.88;5031131;28;20275;-60
2021/08/20 10:24:36;;;;;;;8.43;6.05;;;;;;;21.66;45.68;100249.63;5030478;28;20045;-57
2021/08/20 10:27:06;;;;;;;7.50;5.22;;;;;;;21.84;46.12;100236.94;5031962;28;20041;-56
2021/08/20 10:29:37;;;;;;;7.72;4.68;;;;;;;21.69;47.55;100241.88;5030757;28;20049;-57
2021/08/20 10:32:07;;;;;;;9.25;5.82;;;;;;;21.23;48.28;100240.09;5031012;28;20072;-59
2021/08/20 10:34:39;;;;;;;7.70;4.78;;;;;;;21.07;49.23;100245.97;5031461;28;20081;-60
2021/08/20 10:37:10;;;;;;;10.20;6.07;;;;;;;20.86;49.20;100244.34;5027245;28;20523;-58
2021/08/20 10:39:38;;;;;;;6.38;4.30;;;;;;;20.96;50.51;100249.38;5031677;28;20392;-59
2021/08/20 10:42:09;;;;;;;6.63;4.60;;;;;;;21.06;50.42;100249.75;5029448;28;20041;-59
2021/08/20 10:44:39;;;;;;;6.20;4.93;;;;;;;21.34;48.99;100254.16;5029707;28;20045;-59
2021/08/20 10:47:09;;;;;;;7.63;5.28;;;;;;;21.36;50.64;100252.91;5025480;28;20211;-61
2021/08/20 10:49:43;;;;;;;7.00;5.63;;;;;;;21.69;47.94;100251.97;5030984;28;20049;-57
2021/08/20 10:52:23;;;;;;;6.75;5.10;;;;;;;21.95;48.01;100251.00;5027268;28;20069;-57
2021/08/20 10:55:26;;;;;;;9.35;5.38;;;;;;;21.80;48.86;100251.28;5029047;28;20100;-59
2021/08/20 11:00:56;;;;;;;6.78;5.07;;;;;;;21.26;48.58;100266.16;5054713;28;20049;-58
2021/08/20 11:03:41;;;;;;;8.52;5.47;;;;;;;20.85;50.09;100263.66;5056919;28;20045;-59
2021/08/20 11:06:08;;;;;;;9.60;6.15;;;;;;;20.37;52.73;100267.38;5042647;28;20060;-56
2021/08/20 11:08:37;;;;;;;15.05;6.47;;;;;;;20.03;52.26;100270.22;5039159;28;20065;-57
2021/08/20 11:11:04;;;;;;;10.00;5.72;;;;;;;19.93;53.53;100275.22;5042768;28;20514;-60
2021/08/20 11:13:31;;;;;;;10.20;6.63;;;;;;;19.80;54.01;100276.00;5037374;28;20060;-56
2021/08/20 11:15:59;;;;;;;8.98;6.25;;;;;;;19.58;54.35;100288.06;5042416;28;20114;-62
2021/08/20 11:18:46;;;;;;;6.90;4.95;;;;;;;19.28;56.35;100283.66;5041958;28;20103;-58
2021/08/20 11:21:44;;;;;;;11.57;6.78;;;;;;;19.24;55.58;100286.97;5039211;28;20094;-59